createdAt,value
2016-11-23T00:00:12.461Z,1016.07
2016-11-23T00:01:13.080Z,1016.09
2016-11-23T00:02:13.710Z,1016.11
2016-11-23T00:03:14.324Z,1016.1
2016-11-23T00:04:14.941Z,1016.11
2016-11-23T00:05:15.568Z,1016.15
2016-11-23T00:06:16.187Z,1016.16
2016-11-23T00:07:16.815Z,1016.13
2016-11-23T00:08:17.442Z,1016.15
2016-11-23T00:09:18.056Z,1016.12
2016-11-23T00:10:18.671Z,1016.13
2016-11-23T00:11:19.340Z,1016.13
2016-11-23T00:12:19.963Z,1016.15
2016-11-23T00:13:20.584Z,1016.18
2016-11-23T00:14:21.203Z,1016.2
2016-11-23T00:15:21.831Z,1016.24
2016-11-23T00:16:22.458Z,1016.26
2016-11-23T00:17:23.080Z,1016.28
2016-11-23T00:18:23.707Z,1016.32
2016-11-23T00:19:24.326Z,1016.28
2016-11-23T00:20:24.932Z,1016.33
2016-11-23T00:21:25.575Z,1016.37
2016-11-23T00:22:26.189Z,1016.37
2016-11-23T00:23:26.816Z,1016.4
2016-11-23T00:24:27.438Z,1016.43
2016-11-23T00:25:28.057Z,1016.45
2016-11-23T00:26:28.677Z,1016.45
2016-11-23T00:27:29.294Z,1016.49
2016-11-23T00:28:29.921Z,1016.51
2016-11-23T00:29:30.543Z,1016.5
2016-11-23T00:30:31.157Z,1016.53
2016-11-23T00:31:31.786Z,1016.53
2016-11-23T00:32:32.444Z,1016.53
2016-11-23T00:33:33.060Z,1016.54
2016-11-23T00:34:33.697Z,1016.5
2016-11-23T00:35:34.311Z,1016.53
2016-11-23T00:36:34.941Z,1016.54
2016-11-23T00:37:35.555Z,1016.56
2016-11-23T00:38:36.213Z,1016.56
2016-11-23T00:39:36.827Z,1016.58
2016-11-23T00:40:37.459Z,1016.58
2016-11-23T00:41:38.113Z,1016.57
2016-11-23T00:42:38.753Z,1016.58
2016-11-23T00:43:39.389Z,1016.63
2016-11-23T00:44:40.059Z,1016.62
2016-11-23T00:45:40.735Z,1016.62
2016-11-23T00:46:41.352Z,1016.65
2016-11-23T00:47:41.976Z,1016.67
2016-11-23T00:48:42.598Z,1016.67
2016-11-23T00:49:43.218Z,1016.67
2016-11-23T00:50:43.837Z,1016.74
2016-11-23T00:51:44.460Z,1016.73
2016-11-23T00:52:45.082Z,1016.74
2016-11-23T00:53:45.704Z,1016.72
2016-11-23T00:54:46.327Z,1016.74
2016-11-23T00:55:46.944Z,1016.8
2016-11-23T00:56:47.564Z,1016.8
2016-11-23T00:57:48.185Z,1016.89
2016-11-23T00:58:48.808Z,1016.87
2016-11-23T00:59:49.428Z,1016.92
2016-11-23T01:00:50.047Z,1016.88
2016-11-23T01:01:50.688Z,1016.89
2016-11-23T01:02:51.306Z,1016.9
2016-11-23T01:03:51.950Z,1016.87
2016-11-23T01:04:52.588Z,1016.91
2016-11-23T01:05:53.220Z,1016.93
2016-11-23T01:06:53.842Z,1016.94
2016-11-23T01:07:54.492Z,1016.93
2016-11-23T01:08:55.124Z,1016.93
2016-11-23T01:09:55.741Z,1016.92
2016-11-23T01:10:56.364Z,1016.89
2016-11-23T01:11:56.977Z,1016.9
2016-11-23T01:12:57.604Z,1016.9
2016-11-23T01:13:58.225Z,1016.95
2016-11-23T01:14:58.866Z,1016.89
2016-11-23T01:15:59.491Z,1016.91
2016-11-23T01:17:00.102Z,1016.88
2016-11-23T01:18:00.729Z,1016.92
2016-11-23T01:19:01.344Z,1016.92
2016-11-23T01:20:01.964Z,1016.88
2016-11-23T01:21:02.572Z,1016.9
2016-11-23T01:22:03.195Z,1016.92
2016-11-23T01:23:03.828Z,1016.98
2016-11-23T01:24:04.438Z,1016.97
2016-11-23T01:25:05.076Z,1017.04
2016-11-23T01:26:05.685Z,1017.01
2016-11-23T01:27:06.325Z,1016.94
2016-11-23T01:28:06.944Z,1016.93
2016-11-23T01:29:07.562Z,1016.91
2016-11-23T01:30:08.177Z,1016.89
2016-11-23T01:31:08.794Z,1016.88
2016-11-23T01:32:09.411Z,1016.87
2016-11-23T01:33:10.036Z,1016.87
2016-11-23T01:34:10.651Z,1016.86
2016-11-23T01:35:11.273Z,1016.89
2016-11-23T01:36:11.886Z,1016.87
2016-11-23T01:37:12.510Z,1016.95
2016-11-23T01:38:13.201Z,1016.93
2016-11-23T01:39:13.817Z,1016.91
2016-11-23T01:40:14.437Z,1016.96
2016-11-23T01:41:15.053Z,1016.95
2016-11-23T01:42:15.668Z,1017.01
2016-11-23T01:43:16.298Z,1016.98
2016-11-23T01:44:16.940Z,1016.94
2016-11-23T01:45:17.582Z,1016.92
2016-11-23T01:46:18.202Z,1016.82
2016-11-23T01:47:18.830Z,1016.77
2016-11-23T01:48:19.446Z,1016.66
2016-11-23T01:49:20.070Z,1016.62
2016-11-23T01:50:20.698Z,1016.62
2016-11-23T01:51:21.308Z,1016.62
2016-11-23T01:52:21.918Z,1016.68
2016-11-23T01:53:22.556Z,1016.65
2016-11-23T01:54:23.181Z,1016.68
2016-11-23T01:55:23.799Z,1016.65
2016-11-23T01:56:24.432Z,1016.74
2016-11-23T01:57:25.076Z,1016.79
2016-11-23T01:58:25.817Z,1016.75
2016-11-23T01:59:26.416Z,1016.77
2016-11-23T02:00:27.043Z,1016.76
2016-11-23T02:01:27.668Z,1016.76
2016-11-23T02:02:28.293Z,1016.79
2016-11-23T02:03:28.890Z,1016.75
2016-11-23T02:04:29.578Z,1016.71
2016-11-23T02:05:30.199Z,1016.71
2016-11-23T02:06:30.825Z,1016.71
2016-11-23T02:07:31.463Z,1016.71
2016-11-23T02:08:32.085Z,1016.69
2016-11-23T02:09:32.704Z,1016.69
2016-11-23T02:10:33.320Z,1016.66
2016-11-23T02:11:33.943Z,1016.69
2016-11-23T02:12:34.552Z,1016.69
2016-11-23T02:13:35.183Z,1016.73
2016-11-23T02:14:35.814Z,1016.74
2016-11-23T02:15:36.438Z,1016.71
2016-11-23T02:16:37.056Z,1016.68
2016-11-23T02:17:37.683Z,1016.63
2016-11-23T02:18:38.332Z,1016.65
2016-11-23T02:19:38.951Z,1016.63
2016-11-23T02:20:39.563Z,1016.66
2016-11-23T02:21:40.191Z,1016.61
2016-11-23T02:22:40.814Z,1016.6
2016-11-23T02:23:41.433Z,1016.68
2016-11-23T02:24:42.051Z,1016.62
2016-11-23T02:25:42.671Z,1016.62
2016-11-23T02:26:43.323Z,1016.62
2016-11-23T02:27:43.934Z,1016.58
2016-11-23T02:28:44.554Z,1016.59
2016-11-23T02:29:45.200Z,1016.59
2016-11-23T02:30:45.822Z,1016.6
2016-11-23T02:31:46.466Z,1016.58
2016-11-23T02:32:47.259Z,1016.6
2016-11-23T02:33:47.879Z,1016.58
2016-11-23T02:34:48.484Z,1016.63
2016-11-23T02:35:49.130Z,1016.64
2016-11-23T02:36:49.749Z,1016.61
2016-11-23T02:37:50.373Z,1016.65
2016-11-23T02:38:51.012Z,1016.64
2016-11-23T02:39:51.630Z,1016.66
2016-11-23T02:40:52.265Z,1016.66
2016-11-23T02:41:52.887Z,1016.66
2016-11-23T02:42:53.519Z,1016.7
2016-11-23T02:43:54.219Z,1016.73
2016-11-23T02:44:54.854Z,1016.74
2016-11-23T02:45:55.483Z,1016.73
2016-11-23T02:46:56.113Z,1016.74
2016-11-23T02:47:56.743Z,1016.75
2016-11-23T02:48:57.360Z,1016.73
2016-11-23T02:49:57.992Z,1016.73
2016-11-23T02:50:58.608Z,1016.7
2016-11-23T02:51:59.228Z,1016.72
2016-11-23T02:52:59.849Z,1016.81
2016-11-23T02:54:00.470Z,1016.81
2016-11-23T02:55:01.110Z,1016.83
2016-11-23T02:56:01.733Z,1016.84
2016-11-23T02:57:02.379Z,1016.79
2016-11-23T02:58:03.029Z,1016.86
2016-11-23T02:59:03.661Z,1016.83
2016-11-23T03:00:04.280Z,1016.83
2016-11-23T03:01:04.910Z,1016.86
2016-11-23T03:02:05.526Z,1016.86
2016-11-23T03:03:06.151Z,1016.85
2016-11-23T03:04:06.785Z,1016.85
2016-11-23T03:05:07.401Z,1016.79
2016-11-23T03:06:08.018Z,1016.83
2016-11-23T03:07:08.627Z,1016.85
2016-11-23T03:08:09.251Z,1016.84
2016-11-23T03:09:09.876Z,1016.82
2016-11-23T03:10:10.489Z,1016.91
2016-11-23T03:11:11.115Z,1016.91
2016-11-23T03:12:11.740Z,1016.96
2016-11-23T03:13:12.373Z,1016.93
2016-11-23T03:14:13.008Z,1016.94
2016-11-23T03:15:13.717Z,1016.95
2016-11-23T03:16:14.338Z,1016.98
2016-11-23T03:17:14.981Z,1016.95
2016-11-23T03:18:15.602Z,1016.98
2016-11-23T03:19:16.227Z,1016.99
2016-11-23T03:20:16.855Z,1016.99
2016-11-23T03:21:17.481Z,1016.98
2016-11-23T03:22:18.108Z,1016.95
2016-11-23T03:23:18.771Z,1016.94
2016-11-23T03:24:19.396Z,1016.93
2016-11-23T03:25:20.015Z,1016.99
2016-11-23T03:26:20.659Z,1017.02
2016-11-23T03:27:21.273Z,1017.03
2016-11-23T03:28:21.896Z,1017.01
2016-11-23T03:29:22.542Z,1017.01
2016-11-23T03:30:23.160Z,1016.98
2016-11-23T03:31:23.807Z,1017.01
2016-11-23T03:32:24.428Z,1017.05
2016-11-23T03:33:25.049Z,1017.07
2016-11-23T03:34:25.700Z,1017.1
2016-11-23T03:35:26.363Z,1017.08
2016-11-23T03:36:26.967Z,1017.12
2016-11-23T03:37:27.582Z,1017.13
2016-11-23T03:38:28.203Z,1017.11
2016-11-23T03:39:28.837Z,1017.11
2016-11-23T03:40:29.460Z,1017.13
2016-11-23T03:41:30.098Z,1017.15
2016-11-23T03:42:30.721Z,1017.15
2016-11-23T03:43:31.368Z,1017.17
2016-11-23T03:44:31.984Z,1017.13
2016-11-23T03:45:32.601Z,1017.14
2016-11-23T03:46:33.221Z,1017.09
2016-11-23T03:47:33.835Z,1017.07
2016-11-23T03:48:34.466Z,1017.03
2016-11-23T03:49:35.088Z,1017.08
2016-11-23T03:50:35.747Z,1017.1
2016-11-23T03:51:36.367Z,1017.11
2016-11-23T03:52:36.975Z,1017.1
2016-11-23T03:53:37.616Z,1017.08
2016-11-23T03:54:38.237Z,1017.14
2016-11-23T03:55:38.866Z,1017.09
2016-11-23T03:56:39.480Z,1017.09
2016-11-23T03:57:40.097Z,1017.09
2016-11-23T03:58:40.704Z,1017.06
2016-11-23T03:59:41.323Z,1017.04
2016-11-23T04:00:41.960Z,1017.01
2016-11-23T04:01:42.581Z,1017.05
2016-11-23T04:02:43.196Z,1017.01
2016-11-23T04:03:43.831Z,1017.03
2016-11-23T04:04:44.450Z,1017
2016-11-23T04:05:45.061Z,1017.02
2016-11-23T04:06:45.708Z,1017
2016-11-23T04:07:46.325Z,1017.03
2016-11-23T04:08:46.946Z,1017.04
2016-11-23T04:09:47.566Z,1017.02
2016-11-23T04:10:48.187Z,1017.05
2016-11-23T04:11:48.804Z,1017.03
2016-11-23T04:12:49.426Z,1017.02
2016-11-23T04:13:50.053Z,1017.05
2016-11-23T04:14:50.667Z,1017.05
2016-11-23T04:15:51.322Z,1017.07
2016-11-23T04:16:51.929Z,1017.11
2016-11-23T04:17:52.572Z,1017.07
2016-11-23T04:18:53.192Z,1017.1
2016-11-23T04:19:53.816Z,1017.1
2016-11-23T04:20:54.445Z,1017.07
2016-11-23T04:21:55.061Z,1017.07
2016-11-23T04:22:55.758Z,1017.1
2016-11-23T04:23:56.401Z,1017.07
2016-11-23T04:24:57.028Z,1017.13
2016-11-23T04:25:57.665Z,1017.1
2016-11-23T04:26:58.363Z,1017.08
2016-11-23T04:27:58.988Z,1017.07
2016-11-23T04:28:59.624Z,1017.11
2016-11-23T04:30:00.265Z,1017.1
2016-11-23T04:31:00.924Z,1017.1
2016-11-23T04:32:01.594Z,1017.12
2016-11-23T04:33:02.214Z,1017.14
2016-11-23T04:34:02.839Z,1017.16
2016-11-23T04:35:03.458Z,1017.19
2016-11-23T04:36:04.097Z,1017.19
2016-11-23T04:37:04.723Z,1017.18
2016-11-23T04:38:05.383Z,1017.17
2016-11-23T04:39:06.027Z,1017.25
2016-11-23T04:40:06.645Z,1017.21
2016-11-23T04:41:07.261Z,1017.19
2016-11-23T04:42:07.891Z,1017.2
2016-11-23T04:43:08.509Z,1017.2
2016-11-23T04:44:09.133Z,1017.17
2016-11-23T04:45:09.793Z,1017.17
2016-11-23T04:46:10.448Z,1017.18
2016-11-23T04:47:11.079Z,1017.18
2016-11-23T04:48:11.697Z,1017.19
2016-11-23T04:49:12.345Z,1017.15
2016-11-23T04:50:12.967Z,1017.19
2016-11-23T04:51:13.599Z,1017.17
2016-11-23T04:52:14.212Z,1017.11
2016-11-23T04:53:14.827Z,1017.15
2016-11-23T04:54:15.450Z,1017.15
2016-11-23T04:55:16.063Z,1017.15
2016-11-23T04:56:16.687Z,1017.19
2016-11-23T04:57:17.311Z,1017.18
2016-11-23T04:58:17.926Z,1017.17
2016-11-23T04:59:18.603Z,1017.24
2016-11-23T05:00:19.311Z,1017.22
2016-11-23T05:01:19.934Z,1017.24
2016-11-23T05:02:20.555Z,1017.24
2016-11-23T05:03:21.175Z,1017.29
2016-11-23T05:04:21.801Z,1017.32
2016-11-23T05:05:22.422Z,1017.28
2016-11-23T05:06:23.181Z,1017.33
2016-11-23T05:07:23.822Z,1017.32
2016-11-23T05:08:24.443Z,1017.32
2016-11-23T05:09:25.070Z,1017.35
2016-11-23T05:10:25.690Z,1017.31
2016-11-23T05:11:26.312Z,1017.32
2016-11-23T05:12:26.933Z,1017.3
2016-11-23T05:13:27.548Z,1017.35
2016-11-23T05:14:28.178Z,1017.36
2016-11-23T05:15:28.802Z,1017.38
2016-11-23T05:16:29.426Z,1017.35
2016-11-23T05:17:30.089Z,1017.4
2016-11-23T05:18:30.711Z,1017.34
2016-11-23T05:19:31.336Z,1017.35
2016-11-23T05:20:31.977Z,1017.38
2016-11-23T05:21:32.599Z,1017.41
2016-11-23T05:22:33.218Z,1017.42
2016-11-23T05:23:33.838Z,1017.39
2016-11-23T05:24:34.463Z,1017.42
2016-11-23T05:25:35.092Z,1017.38
2016-11-23T05:26:35.708Z,1017.37
2016-11-23T05:27:36.329Z,1017.36
2016-11-23T05:28:36.948Z,1017.37
2016-11-23T05:29:37.582Z,1017.37
2016-11-23T05:30:38.310Z,1017.36
2016-11-23T05:31:38.914Z,1017.36
2016-11-23T05:32:39.538Z,1017.37
2016-11-23T05:33:40.174Z,1017.36
2016-11-23T05:34:40.795Z,1017.4
2016-11-23T05:35:41.430Z,1017.43
2016-11-23T05:36:42.117Z,1017.39
2016-11-23T05:37:42.753Z,1017.42
2016-11-23T05:38:43.860Z,1017.41
2016-11-23T05:39:45.216Z,1017.42
2016-11-23T05:40:45.828Z,1017.41
2016-11-23T05:41:46.589Z,1017.46
2016-11-23T05:42:47.210Z,1017.48
2016-11-23T05:43:47.821Z,1017.45
2016-11-23T05:44:48.441Z,1017.5
2016-11-23T05:45:49.089Z,1017.48
2016-11-23T05:46:49.695Z,1017.51
2016-11-23T05:47:50.310Z,1017.53
2016-11-23T05:48:50.940Z,1017.56
2016-11-23T05:49:51.554Z,1017.53
2016-11-23T05:50:52.182Z,1017.57
2016-11-23T05:51:52.811Z,1017.62
2016-11-23T05:52:53.435Z,1017.61
2016-11-23T05:53:54.049Z,1017.65
2016-11-23T05:54:54.677Z,1017.63
2016-11-23T05:55:55.291Z,1017.63
2016-11-23T05:56:55.906Z,1017.63
2016-11-23T05:57:56.516Z,1017.64
2016-11-23T05:58:57.139Z,1017.62
2016-11-23T05:59:57.775Z,1017.61
2016-11-23T06:00:58.397Z,1017.63
2016-11-23T06:01:59.001Z,1017.55
2016-11-23T06:02:59.643Z,1017.57
2016-11-23T06:04:00.261Z,1017.59
2016-11-23T06:05:00.871Z,1017.61
2016-11-23T06:06:01.526Z,1017.62
2016-11-23T06:07:02.153Z,1017.65
2016-11-23T06:08:02.768Z,1017.67
2016-11-23T06:09:03.391Z,1017.69
2016-11-23T06:10:04.030Z,1017.69
2016-11-23T06:11:04.737Z,1017.72
2016-11-23T06:12:05.474Z,1017.7
2016-11-23T06:13:06.160Z,1017.69
2016-11-23T06:14:06.783Z,1017.69
2016-11-23T06:15:07.408Z,1017.68
2016-11-23T06:16:08.034Z,1017.67
2016-11-23T06:17:08.687Z,1017.68
2016-11-23T06:18:09.374Z,1017.65
2016-11-23T06:19:10.031Z,1017.67
2016-11-23T06:20:10.712Z,1017.69
2016-11-23T06:21:11.346Z,1017.7
2016-11-23T06:22:11.975Z,1017.72
2016-11-23T06:23:12.619Z,1017.75
2016-11-23T06:24:13.244Z,1017.73
2016-11-23T06:25:13.887Z,1017.72
2016-11-23T06:26:14.507Z,1017.75
2016-11-23T06:27:15.129Z,1017.72
2016-11-23T06:28:15.761Z,1017.75
2016-11-23T06:29:16.383Z,1017.7
2016-11-23T06:30:17.349Z,1017.75
2016-11-23T06:31:17.987Z,1017.77
2016-11-23T06:32:18.605Z,1017.76
2016-11-23T06:33:19.317Z,1017.84
2016-11-23T06:34:20.071Z,1017.84
2016-11-23T06:35:20.673Z,1017.87
2016-11-23T06:36:21.289Z,1017.86
2016-11-23T06:37:21.910Z,1017.89
2016-11-23T06:38:22.584Z,1017.85
2016-11-23T06:39:23.212Z,1017.91
2016-11-23T06:40:23.834Z,1017.89
2016-11-23T06:41:24.466Z,1017.91
2016-11-23T06:42:25.079Z,1017.92
2016-11-23T06:43:25.693Z,1017.93
2016-11-23T06:44:26.303Z,1017.92
2016-11-23T06:45:26.939Z,1017.94
2016-11-23T06:46:27.585Z,1017.99
2016-11-23T06:47:28.310Z,1017.96
2016-11-23T06:48:29.085Z,1017.98
2016-11-23T06:49:29.759Z,1017.98
2016-11-23T06:50:30.414Z,1018
2016-11-23T06:51:31.062Z,1018.03
2016-11-23T06:52:31.718Z,1018
2016-11-23T06:53:32.373Z,1018.01
2016-11-23T06:54:32.986Z,1018.01
2016-11-23T06:55:33.630Z,1018.01
2016-11-23T06:56:34.287Z,1018.06
2016-11-23T06:57:34.972Z,1018.07
2016-11-23T06:58:35.622Z,1018.06
2016-11-23T06:59:36.263Z,1018.06
2016-11-23T07:00:36.915Z,1018.06
2016-11-23T07:01:37.557Z,1018.08
2016-11-23T07:02:38.230Z,1018.11
2016-11-23T07:03:38.893Z,1018.12
2016-11-23T07:04:39.530Z,1018.15
2016-11-23T07:05:40.177Z,1018.14
2016-11-23T07:06:40.810Z,1018.15
2016-11-23T07:07:41.455Z,1018.14
2016-11-23T07:08:42.161Z,1018.19
2016-11-23T07:09:42.792Z,1018.19
2016-11-23T07:10:43.439Z,1018.19
2016-11-23T07:11:44.078Z,1018.21
2016-11-23T07:12:44.734Z,1018.22
2016-11-23T07:13:45.383Z,1018.26
2016-11-23T07:14:46.024Z,1018.23
2016-11-23T07:15:46.665Z,1018.23
2016-11-23T07:16:47.302Z,1018.22
2016-11-23T07:17:48.023Z,1018.21
2016-11-23T07:18:48.745Z,1018.24
2016-11-23T07:19:49.366Z,1018.22
2016-11-23T07:20:49.989Z,1018.21
2016-11-23T07:21:50.620Z,1018.21
2016-11-23T07:22:51.272Z,1018.17
2016-11-23T07:23:51.896Z,1018.2
2016-11-23T07:24:52.541Z,1018.15
2016-11-23T07:25:53.161Z,1018.15
2016-11-23T07:26:53.787Z,1018.1
2016-11-23T07:27:54.402Z,1018.14
2016-11-23T07:28:55.022Z,1018.16
2016-11-23T07:29:55.644Z,1018.16
2016-11-23T07:30:56.269Z,1018.16
2016-11-23T07:31:56.887Z,1018.19
2016-11-23T07:32:57.560Z,1018.17
2016-11-23T07:33:58.181Z,1018.18
2016-11-23T07:34:58.804Z,1018.24
2016-11-23T07:35:59.422Z,1018.25
2016-11-23T07:37:00.066Z,1018.25
2016-11-23T07:38:00.681Z,1018.33
2016-11-23T07:39:01.317Z,1018.27
2016-11-23T07:40:01.931Z,1018.31
2016-11-23T07:41:02.589Z,1018.3
2016-11-23T07:42:03.230Z,1018.29
2016-11-23T07:43:03.847Z,1018.31
2016-11-23T07:44:04.492Z,1018.28
2016-11-23T07:45:05.119Z,1018.29
2016-11-23T07:46:05.761Z,1018.29
2016-11-23T07:47:06.394Z,1018.32
2016-11-23T07:48:07.061Z,1018.32
2016-11-23T07:49:07.677Z,1018.29
2016-11-23T07:50:08.316Z,1018.29
2016-11-23T07:51:08.997Z,1018.28
2016-11-23T07:52:09.621Z,1018.34
2016-11-23T07:53:10.241Z,1018.36
2016-11-23T07:54:10.867Z,1018.35
2016-11-23T07:55:11.524Z,1018.34
2016-11-23T07:56:12.143Z,1018.34
2016-11-23T07:57:12.769Z,1018.4
2016-11-23T07:58:13.479Z,1018.4
2016-11-23T07:59:14.144Z,1018.44
2016-11-23T08:00:14.813Z,1018.44
2016-11-23T08:01:15.454Z,1018.47
2016-11-23T08:02:16.073Z,1018.48
2016-11-23T08:03:16.806Z,1018.42
2016-11-23T08:04:17.444Z,1018.47
2016-11-23T08:05:18.064Z,1018.43
2016-11-23T08:06:18.702Z,1018.43
2016-11-23T08:07:19.324Z,1018.42
2016-11-23T08:08:19.983Z,1018.43
2016-11-23T08:09:20.597Z,1018.43
2016-11-23T08:10:21.279Z,1018.43
2016-11-23T08:11:21.899Z,1018.38
2016-11-23T08:12:22.514Z,1018.39
2016-11-23T08:13:23.135Z,1018.4
2016-11-23T08:14:23.770Z,1018.4
2016-11-23T08:15:24.409Z,1018.37
2016-11-23T08:16:25.054Z,1018.43
2016-11-23T08:17:25.677Z,1018.43
2016-11-23T08:18:26.321Z,1018.43
2016-11-23T08:19:26.955Z,1018.36
2016-11-23T08:20:27.609Z,1018.36
2016-11-23T08:21:28.236Z,1018.33
2016-11-23T08:22:28.869Z,1018.33
2016-11-23T08:23:29.493Z,1018.34
2016-11-23T08:24:30.110Z,1018.37
2016-11-23T08:25:30.739Z,1018.41
2016-11-23T08:26:31.426Z,1018.41
2016-11-23T08:27:32.117Z,1018.44
2016-11-23T08:28:32.771Z,1018.41
2016-11-23T08:29:33.386Z,1018.45
2016-11-23T08:30:34.003Z,1018.49
2016-11-23T08:31:34.677Z,1018.53
2016-11-23T08:32:35.300Z,1018.54
2016-11-23T08:33:35.917Z,1018.56
2016-11-23T08:34:36.543Z,1018.57
2016-11-23T08:35:37.190Z,1018.58
2016-11-23T08:36:37.812Z,1018.6
2016-11-23T08:37:38.510Z,1018.67
2016-11-23T08:38:39.175Z,1018.64
2016-11-23T08:39:39.793Z,1018.62
2016-11-23T08:40:40.458Z,1018.65
2016-11-23T08:41:41.100Z,1018.69
2016-11-23T08:42:41.722Z,1018.69
2016-11-23T08:43:42.366Z,1018.69
2016-11-23T08:44:43.002Z,1018.71
2016-11-23T08:45:43.636Z,1018.73
2016-11-23T08:46:44.247Z,1018.73
2016-11-23T08:47:44.887Z,1018.73
2016-11-23T08:48:45.593Z,1018.73
2016-11-23T08:49:46.215Z,1018.76
2016-11-23T08:50:46.873Z,1018.79
2016-11-23T08:51:47.506Z,1018.83
2016-11-23T08:52:48.134Z,1018.81
2016-11-23T08:53:48.796Z,1018.8
2016-11-23T08:54:49.444Z,1018.84
2016-11-23T08:55:50.062Z,1018.84
2016-11-23T08:56:50.680Z,1018.85
2016-11-23T08:57:51.323Z,1018.88
2016-11-23T08:58:51.973Z,1018.93
2016-11-23T08:59:52.640Z,1018.92
2016-11-23T09:00:53.264Z,1018.93
2016-11-23T09:01:54.015Z,1018.95
2016-11-23T09:02:54.683Z,1018.93
2016-11-23T09:03:55.315Z,1018.96
2016-11-23T09:04:56.042Z,1018.99
2016-11-23T09:05:56.799Z,1018.95
2016-11-23T09:06:57.419Z,1018.99
2016-11-23T09:07:58.065Z,1019
2016-11-23T09:08:58.991Z,1019.03
2016-11-23T09:09:59.693Z,1019.02
2016-11-23T09:11:00.567Z,1018.96
2016-11-23T09:12:01.215Z,1018.99
2016-11-23T09:13:01.885Z,1018.99
2016-11-23T09:14:02.526Z,1018.99
2016-11-23T09:15:03.549Z,1019.01
2016-11-23T09:16:04.156Z,1019.04
2016-11-23T09:17:04.910Z,1018.97
2016-11-23T09:18:05.622Z,1018.99
2016-11-23T09:19:06.312Z,1019.02
2016-11-23T09:20:07.007Z,1018.97
2016-11-23T09:21:07.660Z,1019.01
2016-11-23T09:22:08.469Z,1019.05
2016-11-23T09:23:09.135Z,1019.07
2016-11-23T09:24:09.924Z,1019.08
2016-11-23T09:25:10.524Z,1019.08
2016-11-23T09:26:11.354Z,1019.12
2016-11-23T09:27:11.999Z,1019.13
2016-11-23T09:28:12.648Z,1019.15
2016-11-23T09:29:13.284Z,1019.14
2016-11-23T09:30:13.911Z,1019.19
2016-11-23T09:31:14.549Z,1019.19
2016-11-23T09:32:15.214Z,1019.16
2016-11-23T09:33:15.852Z,1019.18
2016-11-23T09:34:16.501Z,1019.16
2016-11-23T09:35:17.167Z,1019.14
2016-11-23T09:36:17.822Z,1019.15
2016-11-23T09:37:18.488Z,1019.12
2016-11-23T09:38:19.215Z,1019.13
2016-11-23T09:39:19.870Z,1019.1
2016-11-23T09:40:20.508Z,1019.08
2016-11-23T09:41:21.267Z,1019.06
2016-11-23T09:42:21.926Z,1019.05
2016-11-23T09:43:22.590Z,1019.02
2016-11-23T09:44:23.227Z,1019.05
2016-11-23T09:45:23.887Z,1019.09
2016-11-23T09:46:24.533Z,1019.08
2016-11-23T09:47:25.181Z,1019.04
2016-11-23T09:48:25.857Z,1019.09
2016-11-23T09:49:26.600Z,1019.09
2016-11-23T09:50:27.224Z,1019.09
2016-11-23T09:51:27.916Z,1019.11
2016-11-23T09:52:28.545Z,1019.07
2016-11-23T09:53:29.270Z,1019.09
2016-11-23T09:54:29.959Z,1019.12
2016-11-23T09:55:30.623Z,1019.09
2016-11-23T09:56:31.375Z,1019.12
2016-11-23T09:57:32.113Z,1019.12
2016-11-23T09:58:32.742Z,1019.15
2016-11-23T09:59:33.449Z,1019.14
2016-11-23T10:00:34.222Z,1019.13
2016-11-23T10:01:34.890Z,1019.13
2016-11-23T10:02:35.549Z,1019.15
2016-11-23T10:03:36.222Z,1019.15
2016-11-23T10:04:36.870Z,1019.17
2016-11-23T10:05:37.540Z,1019.17
2016-11-23T10:06:38.198Z,1019.21
2016-11-23T10:07:38.820Z,1019.18
2016-11-23T10:08:39.487Z,1019.17
2016-11-23T10:09:40.104Z,1019.18
2016-11-23T10:10:40.743Z,1019.16
2016-11-23T10:11:41.390Z,1019.17
2016-11-23T10:12:42.022Z,1019.14
2016-11-23T10:13:42.644Z,1019.17
2016-11-23T10:14:43.337Z,1019.13
2016-11-23T10:15:43.976Z,1019.13
2016-11-23T10:16:44.627Z,1019.1
2016-11-23T10:17:45.255Z,1019.14
2016-11-23T10:18:45.894Z,1019.1
2016-11-23T10:19:46.516Z,1019.13
2016-11-23T10:20:47.144Z,1019.13
2016-11-23T10:21:47.779Z,1019.15
2016-11-23T10:22:48.403Z,1019.15
2016-11-23T10:23:49.044Z,1019.19
2016-11-23T10:24:49.672Z,1019.18
2016-11-23T10:25:50.293Z,1019.19
2016-11-23T10:26:50.951Z,1019.18
2016-11-23T10:27:51.598Z,1019.19
2016-11-23T10:28:52.256Z,1019.2
2016-11-23T10:29:52.899Z,1019.15
2016-11-23T10:30:53.544Z,1019.11
2016-11-23T10:31:54.200Z,1019.15
2016-11-23T10:32:54.835Z,1019.14
2016-11-23T10:33:55.466Z,1019.15
2016-11-23T10:34:56.164Z,1019.16
2016-11-23T10:35:56.796Z,1019.18
2016-11-23T10:36:57.538Z,1019.12
2016-11-23T10:37:58.176Z,1019.12
2016-11-23T10:38:58.818Z,1019.1
2016-11-23T10:39:59.438Z,1019.09
2016-11-23T10:41:00.091Z,1019.09
2016-11-23T10:42:00.716Z,1019.07
2016-11-23T10:43:01.346Z,1019.1
2016-11-23T10:44:01.985Z,1019.11
2016-11-23T10:45:02.603Z,1019.09
2016-11-23T10:46:03.227Z,1019.16
2016-11-23T10:47:03.856Z,1019.15
2016-11-23T10:48:04.485Z,1019.12
2016-11-23T10:49:05.127Z,1019.07
2016-11-23T10:50:05.755Z,1019.1
2016-11-23T10:51:06.374Z,1019.13
2016-11-23T10:52:06.996Z,1019.1
2016-11-23T10:53:07.616Z,1019.14
2016-11-23T10:54:08.240Z,1019.13
2016-11-23T10:55:08.860Z,1019.12
2016-11-23T10:56:09.476Z,1019.13
2016-11-23T10:57:10.092Z,1019.12
2016-11-23T10:58:10.718Z,1019.09
2016-11-23T10:59:11.344Z,1019.06
2016-11-23T11:00:11.972Z,1019.07
2016-11-23T11:01:12.604Z,1019.11
2016-11-23T11:02:13.229Z,1019.07
2016-11-23T11:03:13.857Z,1019.12
2016-11-23T11:04:14.494Z,1019.12
2016-11-23T11:05:15.111Z,1019.07
2016-11-23T11:06:15.726Z,1019.06
2016-11-23T11:07:16.347Z,1019.06
2016-11-23T11:08:17.001Z,1019.08
2016-11-23T11:09:17.648Z,1019.08
2016-11-23T11:10:18.270Z,1019.08
2016-11-23T11:11:18.894Z,1019.06
2016-11-23T11:12:19.534Z,1019.07
2016-11-23T11:13:20.175Z,1019.04
2016-11-23T11:14:20.807Z,1019.08
2016-11-23T11:15:21.433Z,1019.03
2016-11-23T11:16:22.066Z,1019.02
2016-11-23T11:17:22.689Z,1019
2016-11-23T11:18:23.338Z,1019.04
2016-11-23T11:19:24.002Z,1019.05
2016-11-23T11:20:24.618Z,1019.02
2016-11-23T11:21:25.248Z,1019.02
2016-11-23T11:22:25.868Z,1019.06
2016-11-23T11:23:26.488Z,1019.08
2016-11-23T11:24:27.112Z,1019.03
2016-11-23T11:25:27.756Z,1019.06
2016-11-23T11:26:28.378Z,1019.03
2016-11-23T11:27:29.001Z,1019
2016-11-23T11:28:29.619Z,1019.01
2016-11-23T11:29:30.253Z,1019.02
2016-11-23T11:30:30.909Z,1019.02
2016-11-23T11:31:31.532Z,1019.1
2016-11-23T11:32:32.155Z,1019.11
2016-11-23T11:33:32.790Z,1019.08
2016-11-23T11:34:33.421Z,1019.03
2016-11-23T11:35:34.042Z,1019.08
2016-11-23T11:36:34.667Z,1019.09
2016-11-23T11:37:35.281Z,1019.07
2016-11-23T11:38:35.895Z,1019.14
2016-11-23T11:39:36.521Z,1019.11
2016-11-23T11:40:37.165Z,1019.11
2016-11-23T11:41:37.783Z,1019.11
2016-11-23T11:42:38.444Z,1019.1
2016-11-23T11:43:39.082Z,1019.17
2016-11-23T11:44:39.709Z,1019.14
2016-11-23T11:45:40.337Z,1019.12
2016-11-23T11:46:40.980Z,1019.11
2016-11-23T11:47:41.628Z,1019.14
2016-11-23T11:48:42.256Z,1019.06
2016-11-23T11:49:42.880Z,1019.16
2016-11-23T11:50:43.514Z,1019.12
2016-11-23T11:51:44.148Z,1019.15
2016-11-23T11:52:44.770Z,1019.12
2016-11-23T11:53:45.392Z,1019.11
2016-11-23T11:54:46.024Z,1019.09
2016-11-23T11:55:46.679Z,1019.11
2016-11-23T11:56:47.334Z,1019.1
2016-11-23T11:57:47.952Z,1019.12
2016-11-23T11:58:48.576Z,1019.13
2016-11-23T11:59:49.200Z,1019.17
2016-11-23T12:00:49.852Z,1019.15
2016-11-23T12:01:50.478Z,1019.16
2016-11-23T12:02:51.114Z,1019.16
2016-11-23T12:03:51.738Z,1019.17
2016-11-23T12:04:52.376Z,1019.08
2016-11-23T12:05:53.070Z,1019.12
2016-11-23T12:06:53.683Z,1019.09
2016-11-23T12:07:54.303Z,1019.08
2016-11-23T12:08:54.925Z,1019.11
2016-11-23T12:09:55.549Z,1019.08
2016-11-23T12:10:56.173Z,1019.07
2016-11-23T12:11:56.803Z,1019.06
2016-11-23T12:12:57.422Z,1019.04
2016-11-23T12:13:58.047Z,1019.04
2016-11-23T12:14:58.682Z,1019.02
2016-11-23T12:15:59.343Z,1019